Terminal Aerodrome Forecast
Issued by NWS Cleveland, OH

Home | Current Version | Previous Version | Graphics & Text | Print | Product List | Glossary On
Versions: 1 2 3 4 5 6 7 8 9 10 11 12 13 14 15
000
FTUS41 KCLE 201100
TAFERI
TAF
KERI 201125Z 2012/2112 35006KT P6SM OVC035
      TEMPO 2012/2016 OVC025
     FM201600 35006KT P6SM OVC035
     FM201700 33007KT P6SM SCT250
     FM210200 VRB03KT P6SM BKN100
     FM211100 VRB03KT P6SM OVC250=

USA.gov is the U.S. government's official web portal to all federal, state and local government web resources and services.